CheckWX is a tool to help pilots better visualize weather data.  It is not intended as a substitute for an official pre-flight weather briefing.

16:56:52 UTC

FNUB TAF
Lubango Airport
Lubango, Angola
TAF FNUB 181045Z 1812/1824 10015KT CAVOK BECMG 1820/1823 05005KT 8000 NSC

Jun-18@
12:00 UTC

Jun-18 @ 12:00 UTC

Jun-18@
20:00 UTC

Jun-18 @ 20:00 UTC

TAF FNUB 181045Z 1812/1824 10015KT CAVOK
Wind
  • 100° at 15 KTS
Conditions
No significant weather
Cloud Levels
  • No significant clouds

Jun-18@
20:00 UTC

Jun-18 @ 20:00 UTC

Jun-19@
00:00 UTC

Jun-19 @ 00:00 UTC

BECMG 1820/1823 05005KT 8000 NSC

Becoming

Becoming Conditions expected by Tue, Jun 18, 2019 @ 23:00 UTC

Wind
  • 050° at 5 KTS
Conditions
No significant weather
Cloud Levels
  • No significant clouds